Startpagina
METAR-TAF:

METAR-TAF

Vliegvelden :

Aeropuerto Internacional El Alto

La Paz, Bolivia

breedte: 16-31S, lengte: 068-11W, hoogte: 4058 m

Actueel weer

Dit bericht is 12 minuten geleden gemaakt, om 01:00 UTC
Wind 5 kt uit het noorden
Temperatuur 5°C
Vochtigheid 48%
Druk 1036 hPa
Zicht 10 km of meer

METAR: SLLP 240100Z 01005KT 9999 NSC 05/M05 Q1036

Tijdstip: 21:12 (01:12 UTC)

Verwachting

Dit bericht is 2 uur en het 22 minuten geleden gemaakt, om 22:50 UTC
Verwachting geldig van 24 om 00 UTC tot 24 om 24 UTC
Wind 5 kt uit het noordoosten
Zicht 10 km of meer
Tijdelijke
van 24 om 04 UTC tot 24 om 08 UTC
Zicht: 4000 m
rook
Wijzigt naar
van 24 om 12 UTC tot 24 om 16 UTC
Wind 10 kt uit het westnoordwesten
Weinig wolken op 1700 ft

TAF: SLLP 232250Z 2400/2424 05005KT 9999 NSC TX15/2420Z TNM04/2410Z TEMPO 2404/2408 4000 FU BECMG 2412/2416 30010KT FEW017

Waarnemingen en weersverwachtingen van meer dan 4000 vliegvelden (METAR en TAF).

De beschikbare stations zijn de gele en rode punten op de kaart.

Ga met uw muis naar het station om de naam te zien.

Klik dan om waarnemingen en weersverwachtingen te zien.

kaart wijzigen: klik op de groene knoppen met een zwart kruis om in te zoomen, op de groene knop met een streepje om uit te zoomen of op de groene pijlen voor aangrenzende kaarten.


METAR-TAF: